IBE7221 LEMD-GCXO
Flight info
| Callsign | IBE7221 |
|---|---|
| Flight time | 3h 18m |
| Altitude | 31000 |
| Route | CCS DCT ELVAR/N0450F370 DCT BAROK UN873 SAMAR |
| Aircraft | A320/M-SDE3FGHIRWY/LB1 |
Departure
| Time | 2026-05-08 12:25 |
|---|---|
| Airport | Adolfo Suárez Madrid–Barajas Airport (LEMD) |
Arrival
| Time | 2026-05-08 15:43 |
|---|---|
| Airport | Tenerife Norte-Ciudad de La Laguna Airport (GCXO) |
| Time | Latitude | Longitude | Altitude | Speed | Heading |
|---|---|---|---|---|---|
| 2026-05-08 11:46 | 40.49270 | -3.58966 | 2031 ft | 0 kts | 269° |
| 2026-05-08 12:15 | 40.49270 | -3.58939 | 2034 ft | 4 kts | 269° |
| 2026-05-08 12:15 | 40.49270 | -3.58911 | 2031 ft | 4 kts | 258° |
| 2026-05-08 12:15 | 40.49281 | -3.58886 | 2030 ft | 4 kts | 199° |
| 2026-05-08 12:15 | 40.49305 | -3.58882 | 2030 ft | 3 kts | 179° |
| 2026-05-08 12:16 | 40.49307 | -3.58882 | 2030 ft | 0 kts | 179° |
| 2026-05-08 12:20 | 40.49305 | -3.58882 | 2030 ft | 2 kts | 179° |
| 2026-05-08 12:20 | 40.49292 | -3.58882 | 2031 ft | 3 kts | 179° |
| 2026-05-08 12:20 | 40.49248 | -3.58860 | 2028 ft | 8 kts | 128° |
| 2026-05-08 12:20 | 40.49240 | -3.58801 | 2025 ft | 6 kts | 89° |
| 2026-05-08 12:21 | 40.49240 | -3.58755 | 2026 ft | 4 kts | 89° |
| 2026-05-08 12:21 | 40.49241 | -3.58724 | 2028 ft | 3 kts | 89° |
| 2026-05-08 12:21 | 40.49241 | -3.58684 | 2022 ft | 12 kts | 90° |
| 2026-05-08 12:21 | 40.49241 | -3.58527 | 2018 ft | 19 kts | 90° |
| 2026-05-08 12:22 | 40.49242 | -3.58328 | 2012 ft | 24 kts | 90° |
| 2026-05-08 12:22 | 40.49243 | -3.58137 | 2005 ft | 22 kts | 90° |
| 2026-05-08 12:22 | 40.49243 | -3.57916 | 1998 ft | 26 kts | 90° |
| 2026-05-08 12:22 | 40.49244 | -3.57690 | 1989 ft | 17 kts | 90° |
| 2026-05-08 12:23 | 40.49257 | -3.57583 | 1987 ft | 12 kts | 66° |
| 2026-05-08 12:23 | 40.49278 | -3.57543 | 1985 ft | 0 kts | 54° |
| 2026-05-08 12:23 | 40.49280 | -3.57539 | 1985 ft | 2 kts | 54° |
| 2026-05-08 12:23 | 40.49326 | -3.57483 | 1984 ft | 12 kts | 19° |
| 2026-05-08 12:24 | 40.49402 | -3.57464 | 1985 ft | 10 kts | 7° |
| 2026-05-08 12:24 | 40.49481 | -3.57455 | 1984 ft | 19 kts | 1° |
| 2026-05-08 12:24 | 40.49762 | -3.57456 | 1986 ft | 70 kts | 359° |
| 2026-05-08 12:24 | 40.50505 | -3.57461 | 1993 ft | 143 kts | 360° |
| 2026-05-08 12:25 | 40.51674 | -3.57473 | 2216 ft | 183 kts | 0° |
| 2026-05-08 12:25 | 40.52988 | -3.57440 | 2846 ft | 200 kts | 2° |
| 2026-05-08 12:25 | 40.54476 | -3.57376 | 3497 ft | 223 kts | 0° |
| 2026-05-08 12:25 | 40.56064 | -3.57387 | 3998 ft | 238 kts | 358° |
| 2026-05-08 12:26 | 40.57775 | -3.57431 | 4696 ft | 245 kts | 357° |
| 2026-05-08 12:26 | 40.59474 | -3.57422 | 5409 ft | 251 kts | 5° |
| 2026-05-08 12:26 | 40.61170 | -3.56833 | 6129 ft | 256 kts | 24° |
| 2026-05-08 12:26 | 40.62807 | -3.55845 | 6835 ft | 261 kts | 24° |
| 2026-05-08 12:27 | 40.64613 | -3.55315 | 7264 ft | 278 kts | 353° |
| 2026-05-08 12:27 | 40.66564 | -3.55834 | 7688 ft | 294 kts | 346° |
| 2026-05-08 12:27 | 40.68628 | -3.56159 | 8377 ft | 303 kts | 356° |
| 2026-05-08 12:27 | 40.70754 | -3.56170 | 9174 ft | 309 kts | 0° |
| 2026-05-08 12:28 | 40.72920 | -3.56213 | 9989 ft | 314 kts | 350° |
| 2026-05-08 12:28 | 40.75051 | -3.57046 | 10373 ft | 329 kts | 328° |
| 2026-05-08 12:28 | 40.76829 | -3.58985 | 10743 ft | 338 kts | 303° |
| 2026-05-08 12:28 | 40.77947 | -3.61691 | 11431 ft | 335 kts | 283° |
| 2026-05-08 12:29 | 40.78334 | -3.64673 | 12173 ft | 329 kts | 265° |
| 2026-05-08 12:29 | 40.78019 | -3.67633 | 12928 ft | 326 kts | 253° |
| 2026-05-08 12:29 | 40.77516 | -3.70559 | 13698 ft | 328 kts | 253° |
| 2026-05-08 12:29 | 40.77000 | -3.73495 | 14389 ft | 330 kts | 253° |
| 2026-05-08 12:30 | 40.76475 | -3.76451 | 15091 ft | 332 kts | 253° |
| 2026-05-08 12:30 | 40.75951 | -3.79425 | 15783 ft | 334 kts | 253° |
| 2026-05-08 12:30 | 40.75428 | -3.82422 | 16475 ft | 336 kts | 254° |
| 2026-05-08 12:30 | 40.74900 | -3.85434 | 17130 ft | 338 kts | 254° |
| 2026-05-08 12:31 | 40.74367 | -3.88471 | 17794 ft | 341 kts | 254° |
| 2026-05-08 12:31 | 40.73828 | -3.91536 | 18421 ft | 344 kts | 254° |
| 2026-05-08 12:31 | 40.73286 | -3.94616 | 19005 ft | 346 kts | 254° |
| 2026-05-08 12:31 | 40.72743 | -3.97706 | 19595 ft | 347 kts | 254° |
| 2026-05-08 12:32 | 40.72194 | -4.00813 | 20180 ft | 348 kts | 254° |
| 2026-05-08 12:32 | 40.71643 | -4.03923 | 20775 ft | 350 kts | 254° |
| 2026-05-08 12:32 | 40.71088 | -4.07049 | 21367 ft | 351 kts | 254° |
| 2026-05-08 12:32 | 40.70529 | -4.10193 | 21948 ft | 353 kts | 254° |
| 2026-05-08 12:33 | 40.69968 | -4.13344 | 22499 ft | 354 kts | 254° |
| 2026-05-08 12:33 | 40.69402 | -4.16516 | 23076 ft | 356 kts | 254° |
| 2026-05-08 12:33 | 40.68834 | -4.19695 | 23594 ft | 358 kts | 254° |
| 2026-05-08 12:33 | 40.68260 | -4.22889 | 24065 ft | 359 kts | 254° |
| 2026-05-08 12:34 | 40.67683 | -4.26094 | 24532 ft | 360 kts | 254° |
| 2026-05-08 12:34 | 40.67102 | -4.29308 | 24957 ft | 361 kts | 255° |
| 2026-05-08 12:34 | 40.66520 | -4.32539 | 25386 ft | 363 kts | 255° |
| 2026-05-08 12:34 | 40.65934 | -4.35777 | 25801 ft | 364 kts | 255° |
| 2026-05-08 12:35 | 40.65346 | -4.39030 | 26209 ft | 366 kts | 255° |
| 2026-05-08 12:35 | 40.64757 | -4.42293 | 26599 ft | 367 kts | 255° |
| 2026-05-08 12:35 | 40.64166 | -4.45566 | 27004 ft | 368 kts | 255° |
| 2026-05-08 12:35 | 40.63571 | -4.48861 | 27383 ft | 370 kts | 255° |
| 2026-05-08 12:36 | 40.62959 | -4.52161 | 27739 ft | 371 kts | 252° |
| 2026-05-08 12:36 | 40.62022 | -4.55319 | 28130 ft | 372 kts | 243° |
| 2026-05-08 12:36 | 40.60654 | -4.58212 | 28498 ft | 374 kts | 235° |
| 2026-05-08 12:36 | 40.59094 | -4.60961 | 28871 ft | 376 kts | 235° |
| 2026-05-08 12:37 | 40.57525 | -4.63718 | 29231 ft | 377 kts | 235° |
| 2026-05-08 12:37 | 40.55944 | -4.66487 | 29578 ft | 379 kts | 234° |
| 2026-05-08 12:37 | 40.54360 | -4.69258 | 29908 ft | 380 kts | 235° |
| 2026-05-08 12:37 | 40.52771 | -4.72043 | 30187 ft | 382 kts | 235° |
| 2026-05-08 12:38 | 40.51175 | -4.74845 | 30414 ft | 384 kts | 235° |
| 2026-05-08 12:38 | 40.49574 | -4.77659 | 30646 ft | 386 kts | 234° |
| 2026-05-08 12:38 | 40.47964 | -4.80487 | 30863 ft | 387 kts | 234° |
| 2026-05-08 12:38 | 40.46353 | -4.83309 | 30917 ft | 381 kts | 234° |
| 2026-05-08 12:39 | 40.44796 | -4.86023 | 30934 ft | 365 kts | 234° |
| 2026-05-08 12:39 | 40.43280 | -4.88667 | 30927 ft | 360 kts | 234° |
| 2026-05-08 12:39 | 40.40315 | -4.93859 | 30930 ft | 357 kts | 234° |
| 2026-05-08 12:40 | 40.37330 | -4.99067 | 30928 ft | 357 kts | 234° |
| 2026-05-08 12:40 | 40.34348 | -5.04247 | 30928 ft | 355 kts | 234° |
| 2026-05-08 12:41 | 40.31375 | -5.09412 | 30926 ft | 355 kts | 234° |
| 2026-05-08 12:41 | 40.28404 | -5.14562 | 30922 ft | 354 kts | 234° |
| 2026-05-08 12:42 | 40.25438 | -5.19703 | 30918 ft | 354 kts | 234° |
| 2026-05-08 12:42 | 40.22464 | -5.24834 | 30914 ft | 354 kts | 234° |
| 2026-05-08 12:43 | 40.19490 | -5.29966 | 30916 ft | 354 kts | 234° |
| 2026-05-08 12:43 | 40.16513 | -5.35099 | 30920 ft | 354 kts | 234° |
| 2026-05-08 12:44 | 40.13532 | -5.40215 | 30916 ft | 354 kts | 234° |
| 2026-05-08 12:44 | 40.10549 | -5.45338 | 30892 ft | 354 kts | 234° |
| 2026-05-08 12:45 | 40.07568 | -5.50457 | 30905 ft | 354 kts | 234° |
| 2026-05-08 12:45 | 40.04586 | -5.55566 | 30909 ft | 354 kts | 234° |
| 2026-05-08 12:46 | 40.01591 | -5.60673 | 30909 ft | 354 kts | 234° |
| 2026-05-08 12:46 | 39.98599 | -5.65769 | 30920 ft | 354 kts | 234° |
| 2026-05-08 12:47 | 39.95607 | -5.70868 | 30917 ft | 354 kts | 234° |
| 2026-05-08 12:47 | 39.92618 | -5.75963 | 30937 ft | 353 kts | 233° |
| 2026-05-08 12:48 | 39.89625 | -5.81039 | 30936 ft | 353 kts | 233° |
| 2026-05-08 12:48 | 39.86633 | -5.86101 | 30919 ft | 353 kts | 233° |
| 2026-05-08 12:49 | 39.83646 | -5.91159 | 30920 ft | 352 kts | 233° |
| 2026-05-08 12:49 | 39.80662 | -5.96200 | 30924 ft | 351 kts | 233° |
| 2026-05-08 12:50 | 39.77674 | -6.01243 | 30917 ft | 352 kts | 233° |
| 2026-05-08 12:50 | 39.74689 | -6.06271 | 30917 ft | 351 kts | 233° |
| 2026-05-08 12:51 | 39.70205 | -6.13802 | 30930 ft | 351 kts | 233° |
| 2026-05-08 12:52 | 39.67223 | -6.18806 | 30927 ft | 350 kts | 233° |
| 2026-05-08 12:52 | 39.62743 | -6.26298 | 30901 ft | 350 kts | 233° |
| 2026-05-08 12:53 | 39.59771 | -6.31276 | 30907 ft | 349 kts | 233° |
| 2026-05-08 12:53 | 39.56797 | -6.36237 | 30909 ft | 348 kts | 233° |
| 2026-05-08 12:54 | 39.53821 | -6.41183 | 30906 ft | 348 kts | 233° |
| 2026-05-08 12:54 | 39.51114 | -6.46306 | 30906 ft | 347 kts | 241° |
| 2026-05-08 12:55 | 39.48999 | -6.51937 | 30933 ft | 348 kts | 244° |
| 2026-05-08 12:55 | 39.46984 | -6.57625 | 30919 ft | 347 kts | 243° |
| 2026-05-08 12:56 | 39.44887 | -6.63251 | 30909 ft | 347 kts | 242° |
| 2026-05-08 12:56 | 39.42738 | -6.68844 | 30909 ft | 347 kts | 242° |
| 2026-05-08 12:57 | 39.40579 | -6.74423 | 30905 ft | 347 kts | 242° |
| 2026-05-08 12:57 | 39.38423 | -6.79999 | 30904 ft | 347 kts | 242° |
| 2026-05-08 12:58 | 39.36270 | -6.85565 | 30900 ft | 346 kts | 242° |
| 2026-05-08 12:58 | 39.34112 | -6.91130 | 30905 ft | 346 kts | 242° |
| 2026-05-08 12:59 | 39.31960 | -6.96669 | 30903 ft | 345 kts | 242° |
| 2026-05-08 12:59 | 39.29810 | -7.02205 | 30901 ft | 345 kts | 242° |
| 2026-05-08 13:00 | 39.28017 | -7.06796 | 30902 ft | 344 kts | 242° |
| 2026-05-08 13:00 | 39.25861 | -7.12315 | 30902 ft | 344 kts | 242° |
| 2026-05-08 13:01 | 39.23699 | -7.17824 | 30896 ft | 344 kts | 242° |
| 2026-05-08 13:01 | 39.21031 | -7.22900 | 30917 ft | 343 kts | 225° |
| 2026-05-08 13:02 | 39.17209 | -7.26622 | 30911 ft | 345 kts | 218° |
| 2026-05-08 13:02 | 39.13281 | -7.30192 | 30905 ft | 346 kts | 218° |
| 2026-05-08 13:03 | 39.09354 | -7.33750 | 30888 ft | 345 kts | 218° |
| 2026-05-08 13:03 | 39.05426 | -7.37306 | 30891 ft | 345 kts | 218° |
| 2026-05-08 13:04 | 39.01502 | -7.40848 | 30888 ft | 344 kts | 218° |
| 2026-05-08 13:04 | 38.97578 | -7.44383 | 30889 ft | 344 kts | 218° |
| 2026-05-08 13:05 | 38.93656 | -7.47917 | 30887 ft | 344 kts | 218° |
| 2026-05-08 13:05 | 38.89737 | -7.51453 | 30888 ft | 344 kts | 218° |
| 2026-05-08 13:06 | 38.85818 | -7.54980 | 30864 ft | 344 kts | 218° |
| 2026-05-08 13:06 | 38.81894 | -7.58485 | 30876 ft | 343 kts | 218° |
| 2026-05-08 13:07 | 38.77983 | -7.61990 | 30908 ft | 343 kts | 217° |
| 2026-05-08 13:07 | 38.74076 | -7.65495 | 30901 ft | 342 kts | 217° |
| 2026-05-08 13:08 | 38.70170 | -7.68983 | 30897 ft | 343 kts | 217° |
| 2026-05-08 13:08 | 38.66260 | -7.72467 | 30893 ft | 343 kts | 217° |
| 2026-05-08 13:09 | 38.62346 | -7.75951 | 30859 ft | 343 kts | 217° |
| 2026-05-08 13:09 | 38.58431 | -7.79430 | 30870 ft | 342 kts | 217° |
| 2026-05-08 13:10 | 38.54524 | -7.82902 | 30878 ft | 342 kts | 217° |
| 2026-05-08 13:10 | 38.50619 | -7.86375 | 30881 ft | 342 kts | 217° |
| 2026-05-08 13:11 | 38.46720 | -7.89838 | 30885 ft | 342 kts | 217° |
| 2026-05-08 13:11 | 38.42812 | -7.93296 | 30887 ft | 342 kts | 217° |
| 2026-05-08 13:12 | 38.38904 | -7.96746 | 30885 ft | 341 kts | 217° |
| 2026-05-08 13:12 | 38.35001 | -8.00185 | 30875 ft | 341 kts | 217° |
| 2026-05-08 13:13 | 38.31124 | -8.03596 | 30881 ft | 341 kts | 217° |
| 2026-05-08 13:13 | 38.27230 | -8.07025 | 30881 ft | 340 kts | 217° |
| 2026-05-08 13:14 | 38.23335 | -8.10447 | 30883 ft | 340 kts | 217° |
| 2026-05-08 13:14 | 38.19449 | -8.13861 | 30882 ft | 340 kts | 217° |
| 2026-05-08 13:15 | 38.15564 | -8.17273 | 30880 ft | 339 kts | 217° |
| 2026-05-08 13:15 | 38.11679 | -8.20680 | 30875 ft | 339 kts | 217° |
| 2026-05-08 13:16 | 38.07792 | -8.24075 | 30877 ft | 339 kts | 217° |
| 2026-05-08 13:16 | 38.03904 | -8.27456 | 30878 ft | 339 kts | 217° |
| 2026-05-08 13:17 | 38.00021 | -8.30842 | 30875 ft | 339 kts | 217° |
| 2026-05-08 13:17 | 37.96140 | -8.34235 | 30877 ft | 339 kts | 217° |
| 2026-05-08 13:18 | 37.92256 | -8.37615 | 30892 ft | 338 kts | 217° |
| 2026-05-08 13:18 | 37.88378 | -8.40983 | 30866 ft | 338 kts | 217° |
| 2026-05-08 13:19 | 37.84511 | -8.44336 | 30872 ft | 337 kts | 217° |
| 2026-05-08 13:19 | 37.80651 | -8.47683 | 30873 ft | 336 kts | 217° |
| 2026-05-08 13:20 | 37.76798 | -8.51018 | 30879 ft | 335 kts | 217° |
| 2026-05-08 13:20 | 37.72949 | -8.54344 | 30878 ft | 335 kts | 217° |
| 2026-05-08 13:21 | 37.69126 | -8.57641 | 30876 ft | 335 kts | 217° |
| 2026-05-08 13:21 | 37.65280 | -8.60956 | 30881 ft | 335 kts | 217° |
| 2026-05-08 13:22 | 37.61442 | -8.64265 | 30864 ft | 334 kts | 217° |
| 2026-05-08 13:22 | 37.57610 | -8.67564 | 30874 ft | 333 kts | 217° |
| 2026-05-08 13:23 | 37.53782 | -8.70850 | 30878 ft | 333 kts | 217° |
| 2026-05-08 13:23 | 37.49954 | -8.74137 | 30903 ft | 333 kts | 217° |
| 2026-05-08 13:24 | 37.46131 | -8.77409 | 30906 ft | 332 kts | 217° |
| 2026-05-08 13:24 | 37.42308 | -8.80673 | 30902 ft | 332 kts | 217° |
| 2026-05-08 13:25 | 37.38492 | -8.83931 | 30875 ft | 331 kts | 217° |
| 2026-05-08 13:25 | 37.34683 | -8.87181 | 30888 ft | 331 kts | 217° |
| 2026-05-08 13:26 | 37.30877 | -8.90423 | 30890 ft | 330 kts | 217° |
| 2026-05-08 13:26 | 37.27080 | -8.93658 | 30894 ft | 330 kts | 217° |
| 2026-05-08 13:27 | 37.23284 | -8.96888 | 30900 ft | 330 kts | 217° |
| 2026-05-08 13:27 | 37.19489 | -9.00113 | 30896 ft | 329 kts | 217° |
| 2026-05-08 13:28 | 37.15696 | -9.03331 | 30896 ft | 329 kts | 217° |
| 2026-05-08 13:28 | 37.11905 | -9.06542 | 30884 ft | 328 kts | 217° |
| 2026-05-08 13:29 | 37.08126 | -9.09739 | 30934 ft | 327 kts | 217° |
| 2026-05-08 13:29 | 37.04363 | -9.12919 | 30930 ft | 326 kts | 217° |
| 2026-05-08 13:30 | 37.00613 | -9.16087 | 30932 ft | 325 kts | 217° |
| 2026-05-08 13:30 | 36.96870 | -9.19241 | 30929 ft | 324 kts | 217° |
| 2026-05-08 13:31 | 36.93137 | -9.22388 | 30909 ft | 323 kts | 217° |
| 2026-05-08 13:31 | 36.89405 | -9.25524 | 30903 ft | 323 kts | 217° |
| 2026-05-08 13:32 | 36.85675 | -9.28657 | 30882 ft | 323 kts | 217° |
| 2026-05-08 13:32 | 36.81957 | -9.31782 | 30891 ft | 322 kts | 217° |
| 2026-05-08 13:33 | 36.78243 | -9.34894 | 30899 ft | 321 kts | 217° |
| 2026-05-08 13:33 | 36.74531 | -9.37998 | 30897 ft | 321 kts | 217° |
| 2026-05-08 13:34 | 36.70821 | -9.41095 | 30888 ft | 321 kts | 217° |
| 2026-05-08 13:34 | 36.67116 | -9.44195 | 30885 ft | 321 kts | 217° |
| 2026-05-08 13:35 | 36.63410 | -9.47284 | 30924 ft | 320 kts | 217° |
| 2026-05-08 13:35 | 36.59730 | -9.50343 | 30892 ft | 320 kts | 217° |
| 2026-05-08 13:36 | 36.56015 | -9.53432 | 30899 ft | 318 kts | 217° |
| 2026-05-08 13:36 | 36.52341 | -9.56488 | 30894 ft | 317 kts | 217° |
| 2026-05-08 13:37 | 36.48675 | -9.59536 | 30886 ft | 317 kts | 217° |
| 2026-05-08 13:37 | 36.45008 | -9.62572 | 30882 ft | 317 kts | 217° |
| 2026-05-08 13:38 | 36.41338 | -9.65605 | 30884 ft | 317 kts | 217° |
| 2026-05-08 13:38 | 36.37694 | -9.68622 | 30872 ft | 317 kts | 217° |
| 2026-05-08 13:39 | 36.34028 | -9.71659 | 30853 ft | 316 kts | 217° |
| 2026-05-08 13:39 | 36.30374 | -9.74677 | 30869 ft | 315 kts | 217° |
| 2026-05-08 13:40 | 36.26724 | -9.77684 | 30875 ft | 314 kts | 217° |
| 2026-05-08 13:40 | 36.23088 | -9.80681 | 30882 ft | 314 kts | 217° |
| 2026-05-08 13:41 | 36.19455 | -9.83670 | 30915 ft | 313 kts | 217° |
| 2026-05-08 13:41 | 36.15824 | -9.86648 | 30903 ft | 313 kts | 217° |
| 2026-05-08 13:42 | 36.12199 | -9.89624 | 30887 ft | 313 kts | 217° |
| 2026-05-08 13:42 | 36.08575 | -9.92594 | 30849 ft | 312 kts | 217° |
| 2026-05-08 13:43 | 36.04963 | -9.95550 | 30866 ft | 311 kts | 218° |
| 2026-05-08 13:43 | 36.01356 | -9.98501 | 30863 ft | 311 kts | 218° |
| 2026-05-08 13:44 | 35.97753 | -10.01438 | 30860 ft | 310 kts | 217° |
| 2026-05-08 13:44 | 35.94223 | -10.04479 | 30865 ft | 309 kts | 220° |
| 2026-05-08 13:45 | 35.90818 | -10.07696 | 30868 ft | 308 kts | 220° |
| 2026-05-08 13:45 | 35.87422 | -10.10913 | 30864 ft | 308 kts | 220° |
| 2026-05-08 13:46 | 35.84559 | -10.13587 | 30860 ft | 308 kts | 220° |
| 2026-05-08 13:46 | 35.81136 | -10.16760 | 30815 ft | 308 kts | 220° |
| 2026-05-08 13:47 | 35.77723 | -10.19915 | 30846 ft | 306 kts | 220° |
| 2026-05-08 13:47 | 35.74344 | -10.23047 | 30891 ft | 306 kts | 220° |
| 2026-05-08 13:48 | 35.70940 | -10.26195 | 30884 ft | 306 kts | 220° |
| 2026-05-08 13:48 | 35.67535 | -10.29341 | 30874 ft | 306 kts | 220° |
| 2026-05-08 13:49 | 35.64121 | -10.32488 | 30872 ft | 307 kts | 220° |
| 2026-05-08 13:49 | 35.60704 | -10.35628 | 30869 ft | 307 kts | 220° |
| 2026-05-08 13:50 | 35.57292 | -10.38774 | 30868 ft | 307 kts | 220° |
| 2026-05-08 13:50 | 35.53878 | -10.41911 | 30857 ft | 306 kts | 220° |
| 2026-05-08 13:51 | 35.50461 | -10.45044 | 30862 ft | 306 kts | 220° |
| 2026-05-08 13:51 | 35.47050 | -10.48175 | 30862 ft | 306 kts | 220° |
| 2026-05-08 13:52 | 35.43637 | -10.51307 | 30862 ft | 306 kts | 220° |
| 2026-05-08 13:52 | 35.40225 | -10.54432 | 30859 ft | 306 kts | 220° |
| 2026-05-08 13:53 | 35.36813 | -10.57550 | 30883 ft | 306 kts | 220° |
| 2026-05-08 13:53 | 35.33395 | -10.60666 | 30870 ft | 306 kts | 220° |
| 2026-05-08 13:54 | 35.29981 | -10.63780 | 30862 ft | 306 kts | 220° |
| 2026-05-08 13:54 | 35.26566 | -10.66893 | 30840 ft | 306 kts | 220° |
| 2026-05-08 13:55 | 35.23157 | -10.69993 | 30859 ft | 305 kts | 220° |
| 2026-05-08 13:56 | 35.18060 | -10.74630 | 30861 ft | 304 kts | 220° |
| 2026-05-08 13:56 | 35.14671 | -10.77700 | 30863 ft | 303 kts | 220° |
| 2026-05-08 13:57 | 35.11280 | -10.80772 | 30863 ft | 303 kts | 220° |
| 2026-05-08 13:57 | 35.07920 | -10.83820 | 30866 ft | 303 kts | 220° |
| 2026-05-08 13:58 | 35.04542 | -10.86886 | 30863 ft | 303 kts | 220° |
| 2026-05-08 13:58 | 35.01158 | -10.89945 | 30860 ft | 303 kts | 220° |
| 2026-05-08 13:59 | 34.97783 | -10.92992 | 30840 ft | 301 kts | 220° |
| 2026-05-08 13:59 | 34.94416 | -10.96036 | 30886 ft | 301 kts | 220° |
| 2026-05-08 14:00 | 34.91044 | -10.99075 | 30877 ft | 301 kts | 220° |
| 2026-05-08 14:00 | 34.87671 | -11.02107 | 30869 ft | 301 kts | 220° |
| 2026-05-08 14:01 | 34.84297 | -11.05141 | 30864 ft | 301 kts | 220° |
| 2026-05-08 14:01 | 34.80925 | -11.08170 | 30860 ft | 302 kts | 220° |
| 2026-05-08 14:02 | 34.77546 | -11.11199 | 30861 ft | 302 kts | 220° |
| 2026-05-08 14:02 | 34.74165 | -11.14228 | 30857 ft | 302 kts | 220° |
| 2026-05-08 14:03 | 34.70788 | -11.17246 | 30827 ft | 301 kts | 220° |
| 2026-05-08 14:03 | 34.67421 | -11.20255 | 30838 ft | 300 kts | 220° |
| 2026-05-08 14:03 | 34.65739 | -11.21763 | 30841 ft | 300 kts | 220° |
| 2026-05-08 14:04 | 34.64056 | -11.23268 | 30840 ft | 300 kts | 220° |
| 2026-05-08 14:04 | 34.62379 | -11.24768 | 30843 ft | 300 kts | 220° |
| 2026-05-08 14:04 | 34.60700 | -11.26273 | 30845 ft | 300 kts | 220° |
| 2026-05-08 14:04 | 34.59024 | -11.27782 | 30848 ft | 300 kts | 220° |
| 2026-05-08 14:05 | 34.57351 | -11.29285 | 30851 ft | 300 kts | 220° |
| 2026-05-08 14:05 | 34.55673 | -11.30793 | 30852 ft | 300 kts | 220° |
| 2026-05-08 14:05 | 34.54020 | -11.32275 | 30888 ft | 300 kts | 220° |
| 2026-05-08 14:05 | 34.52344 | -11.33777 | 30880 ft | 300 kts | 220° |
| 2026-05-08 14:06 | 34.50665 | -11.35280 | 30874 ft | 300 kts | 220° |
| 2026-05-08 14:06 | 34.48982 | -11.36786 | 30869 ft | 300 kts | 220° |
| 2026-05-08 14:06 | 34.47302 | -11.38289 | 30865 ft | 300 kts | 220° |
| 2026-05-08 14:07 | 34.43937 | -11.41296 | 30831 ft | 301 kts | 220° |
| 2026-05-08 14:07 | 34.40572 | -11.44304 | 30841 ft | 300 kts | 220° |
| 2026-05-08 14:07 | 34.38896 | -11.45805 | 30846 ft | 300 kts | 220° |
| 2026-05-08 14:08 | 34.37216 | -11.47308 | 30847 ft | 300 kts | 220° |
| 2026-05-08 14:08 | 34.35533 | -11.48810 | 30850 ft | 300 kts | 220° |
| 2026-05-08 14:08 | 34.33852 | -11.50309 | 30851 ft | 300 kts | 220° |
| 2026-05-08 14:08 | 34.32173 | -11.51803 | 30853 ft | 300 kts | 220° |
| 2026-05-08 14:09 | 34.30486 | -11.53296 | 30853 ft | 300 kts | 220° |
| 2026-05-08 14:09 | 34.28804 | -11.54786 | 30859 ft | 300 kts | 220° |
| 2026-05-08 14:09 | 34.27124 | -11.56280 | 30857 ft | 300 kts | 220° |
| 2026-05-08 14:09 | 34.25447 | -11.57774 | 30859 ft | 300 kts | 220° |
| 2026-05-08 14:10 | 34.23769 | -11.59270 | 30859 ft | 299 kts | 220° |
| 2026-05-08 14:10 | 34.22092 | -11.60764 | 30850 ft | 299 kts | 220° |
| 2026-05-08 14:10 | 34.20414 | -11.62256 | 30847 ft | 299 kts | 220° |
| 2026-05-08 14:10 | 34.18739 | -11.63737 | 30848 ft | 299 kts | 220° |
| 2026-05-08 14:11 | 34.17060 | -11.65222 | 30815 ft | 299 kts | 220° |
| 2026-05-08 14:11 | 34.13688 | -11.68214 | 30853 ft | 301 kts | 220° |
| 2026-05-08 14:12 | 34.10315 | -11.71211 | 30859 ft | 301 kts | 220° |
| 2026-05-08 14:12 | 34.06931 | -11.74193 | 30861 ft | 301 kts | 220° |
| 2026-05-08 14:12 | 34.05245 | -11.75680 | 30858 ft | 300 kts | 220° |
| 2026-05-08 14:13 | 34.03562 | -11.77170 | 30855 ft | 300 kts | 220° |
| 2026-05-08 14:13 | 34.01879 | -11.78660 | 30854 ft | 300 kts | 220° |
| 2026-05-08 14:13 | 34.00196 | -11.80143 | 30854 ft | 300 kts | 220° |
| 2026-05-08 14:13 | 33.98512 | -11.81626 | 30854 ft | 300 kts | 220° |
| 2026-05-08 14:14 | 33.96830 | -11.83108 | 30857 ft | 300 kts | 220° |
| 2026-05-08 14:14 | 33.95143 | -11.84595 | 30860 ft | 300 kts | 220° |
| 2026-05-08 14:14 | 33.93459 | -11.86081 | 30860 ft | 300 kts | 220° |
| 2026-05-08 14:14 | 33.91773 | -11.87567 | 30860 ft | 300 kts | 220° |
| 2026-05-08 14:15 | 33.90087 | -11.89053 | 30859 ft | 300 kts | 220° |
| 2026-05-08 14:15 | 33.86699 | -11.92037 | 30839 ft | 303 kts | 220° |
| 2026-05-08 14:16 | 33.83292 | -11.95021 | 30848 ft | 303 kts | 220° |
| 2026-05-08 14:16 | 33.79890 | -11.98006 | 30851 ft | 303 kts | 220° |
| 2026-05-08 14:17 | 33.76486 | -12.00993 | 30858 ft | 303 kts | 220° |
| 2026-05-08 14:17 | 33.73110 | -12.03956 | 30856 ft | 303 kts | 220° |
| 2026-05-08 14:18 | 33.69705 | -12.06926 | 30887 ft | 302 kts | 220° |
| 2026-05-08 14:18 | 33.66309 | -12.09885 | 30882 ft | 301 kts | 220° |
| 2026-05-08 14:19 | 33.62928 | -12.12846 | 30878 ft | 301 kts | 220° |
| 2026-05-08 14:19 | 33.59546 | -12.15796 | 30834 ft | 301 kts | 220° |
| 2026-05-08 14:20 | 33.56156 | -12.18748 | 30841 ft | 302 kts | 220° |
| 2026-05-08 14:20 | 33.52750 | -12.21709 | 30845 ft | 303 kts | 220° |
| 2026-05-08 14:21 | 33.49341 | -12.24668 | 30851 ft | 303 kts | 220° |
| 2026-05-08 14:21 | 33.45934 | -12.27636 | 30852 ft | 303 kts | 220° |
| 2026-05-08 14:22 | 33.42521 | -12.30600 | 30853 ft | 303 kts | 220° |
| 2026-05-08 14:22 | 33.39106 | -12.33560 | 30854 ft | 303 kts | 220° |
| 2026-05-08 14:23 | 33.35692 | -12.36515 | 30860 ft | 303 kts | 220° |
| 2026-05-08 14:23 | 33.32271 | -12.39468 | 30821 ft | 305 kts | 220° |
| 2026-05-08 14:24 | 33.28802 | -12.42474 | 30901 ft | 309 kts | 220° |
| 2026-05-08 14:24 | 33.25320 | -12.45471 | 30901 ft | 308 kts | 220° |
| 2026-05-08 14:25 | 33.21849 | -12.48457 | 30896 ft | 307 kts | 220° |
| 2026-05-08 14:25 | 33.18396 | -12.51440 | 30892 ft | 306 kts | 220° |
| 2026-05-08 14:26 | 33.14944 | -12.54417 | 30894 ft | 306 kts | 220° |
| 2026-05-08 14:26 | 33.11492 | -12.57385 | 30890 ft | 306 kts | 220° |
| 2026-05-08 14:27 | 33.08042 | -12.60354 | 30887 ft | 306 kts | 220° |
| 2026-05-08 14:27 | 33.04612 | -12.63298 | 30881 ft | 306 kts | 220° |
| 2026-05-08 14:28 | 33.01113 | -12.66299 | 30854 ft | 312 kts | 220° |
| 2026-05-08 14:28 | 32.97579 | -12.69318 | 30865 ft | 313 kts | 220° |
| 2026-05-08 14:29 | 32.94070 | -12.72321 | 30875 ft | 313 kts | 220° |
| 2026-05-08 14:29 | 32.90535 | -12.75342 | 30887 ft | 313 kts | 220° |
| 2026-05-08 14:30 | 32.87003 | -12.78358 | 30930 ft | 312 kts | 221° |
| 2026-05-08 14:30 | 32.83478 | -12.81360 | 30913 ft | 311 kts | 221° |
| 2026-05-08 14:31 | 32.79965 | -12.84347 | 30917 ft | 310 kts | 221° |
| 2026-05-08 14:31 | 32.76462 | -12.87318 | 30911 ft | 309 kts | 221° |
| 2026-05-08 14:32 | 32.71211 | -12.91763 | 30899 ft | 309 kts | 221° |
| 2026-05-08 14:32 | 32.67713 | -12.94723 | 30901 ft | 309 kts | 221° |
| 2026-05-08 14:33 | 32.64219 | -12.97674 | 30900 ft | 308 kts | 220° |
| 2026-05-08 14:33 | 32.61309 | -13.00123 | 30898 ft | 308 kts | 221° |
| 2026-05-08 14:34 | 32.57816 | -13.03071 | 30901 ft | 308 kts | 221° |
| 2026-05-08 14:34 | 32.54323 | -13.06009 | 30900 ft | 308 kts | 221° |
| 2026-05-08 14:35 | 32.50833 | -13.08950 | 30887 ft | 308 kts | 220° |
| 2026-05-08 14:35 | 32.47342 | -13.11881 | 30885 ft | 308 kts | 220° |
| 2026-05-08 14:36 | 32.43820 | -13.14841 | 30911 ft | 314 kts | 221° |
| 2026-05-08 14:36 | 32.40254 | -13.17829 | 30913 ft | 314 kts | 221° |
| 2026-05-08 14:37 | 32.36699 | -13.20807 | 30915 ft | 313 kts | 221° |
| 2026-05-08 14:37 | 32.33149 | -13.23779 | 30915 ft | 312 kts | 221° |
| 2026-05-08 14:38 | 32.29608 | -13.26741 | 30904 ft | 312 kts | 221° |
| 2026-05-08 14:38 | 32.26069 | -13.29694 | 30899 ft | 311 kts | 221° |
| 2026-05-08 14:39 | 32.22538 | -13.32641 | 30903 ft | 311 kts | 221° |
| 2026-05-08 14:39 | 32.19008 | -13.35577 | 30894 ft | 310 kts | 221° |
| 2026-05-08 14:40 | 32.15465 | -13.38533 | 30878 ft | 315 kts | 221° |
| 2026-05-08 14:40 | 32.11872 | -13.41529 | 30878 ft | 317 kts | 221° |
| 2026-05-08 14:41 | 32.08272 | -13.44523 | 30889 ft | 317 kts | 221° |
| 2026-05-08 14:41 | 32.04674 | -13.47522 | 30891 ft | 317 kts | 221° |
| 2026-05-08 14:42 | 32.01072 | -13.50510 | 30921 ft | 316 kts | 221° |
| 2026-05-08 14:42 | 31.97481 | -13.53492 | 30923 ft | 315 kts | 221° |
| 2026-05-08 14:43 | 31.93893 | -13.56457 | 30918 ft | 315 kts | 221° |
| 2026-05-08 14:43 | 31.90310 | -13.59421 | 30916 ft | 315 kts | 221° |
| 2026-05-08 14:44 | 31.86755 | -13.62372 | 30873 ft | 317 kts | 221° |
| 2026-05-08 14:44 | 31.83137 | -13.65365 | 30881 ft | 319 kts | 221° |
| 2026-05-08 14:45 | 31.79494 | -13.68351 | 30886 ft | 319 kts | 221° |
| 2026-05-08 14:45 | 31.75861 | -13.71344 | 30896 ft | 319 kts | 221° |
| 2026-05-08 14:46 | 31.72223 | -13.74342 | 30900 ft | 319 kts | 221° |
| 2026-05-08 14:46 | 31.68582 | -13.77334 | 30904 ft | 320 kts | 221° |
| 2026-05-08 14:47 | 31.64942 | -13.80324 | 30903 ft | 319 kts | 221° |
| 2026-05-08 14:47 | 31.61299 | -13.83314 | 30910 ft | 319 kts | 221° |
| 2026-05-08 14:48 | 31.57659 | -13.86299 | 30885 ft | 321 kts | 221° |
| 2026-05-08 14:48 | 31.53984 | -13.89315 | 30894 ft | 323 kts | 221° |
| 2026-05-08 14:49 | 31.50304 | -13.92330 | 30893 ft | 323 kts | 221° |
| 2026-05-08 14:49 | 31.46618 | -13.95342 | 30906 ft | 323 kts | 221° |
| 2026-05-08 14:50 | 31.42928 | -13.98358 | 30911 ft | 323 kts | 221° |
| 2026-05-08 14:50 | 31.39237 | -14.01371 | 30919 ft | 323 kts | 221° |
| 2026-05-08 14:51 | 31.35551 | -14.04375 | 30915 ft | 323 kts | 221° |
| 2026-05-08 14:51 | 31.31868 | -14.07382 | 30913 ft | 323 kts | 221° |
| 2026-05-08 14:52 | 31.26329 | -14.11919 | 30901 ft | 327 kts | 222° |
| 2026-05-08 14:53 | 31.22596 | -14.14978 | 30917 ft | 328 kts | 221° |
| 2026-05-08 14:53 | 31.18857 | -14.18037 | 30919 ft | 328 kts | 222° |
| 2026-05-08 14:54 | 31.15124 | -14.21088 | 30921 ft | 327 kts | 222° |
| 2026-05-08 14:54 | 31.11392 | -14.24132 | 30930 ft | 327 kts | 222° |
| 2026-05-08 14:55 | 31.07665 | -14.27168 | 30929 ft | 327 kts | 222° |
| 2026-05-08 14:55 | 31.03933 | -14.30208 | 30930 ft | 327 kts | 222° |
| 2026-05-08 14:56 | 31.00211 | -14.33237 | 30930 ft | 326 kts | 222° |
| 2026-05-08 14:56 | 30.96468 | -14.36282 | 30916 ft | 331 kts | 222° |
| 2026-05-08 14:57 | 30.92707 | -14.39340 | 30927 ft | 332 kts | 222° |
| 2026-05-08 14:57 | 30.88917 | -14.42411 | 30930 ft | 332 kts | 222° |
| 2026-05-08 14:58 | 30.85100 | -14.45489 | 30932 ft | 332 kts | 222° |
| 2026-05-08 14:58 | 30.81339 | -14.48531 | 30934 ft | 332 kts | 222° |
| 2026-05-08 14:59 | 30.77543 | -14.51588 | 30939 ft | 332 kts | 222° |
| 2026-05-08 14:59 | 30.71821 | -14.56185 | 30944 ft | 332 kts | 222° |
| 2026-05-08 15:00 | 30.68026 | -14.59235 | 30922 ft | 333 kts | 223° |
| 2026-05-08 15:00 | 30.64218 | -14.62297 | 30935 ft | 336 kts | 223° |
| 2026-05-08 15:01 | 30.60369 | -14.65376 | 30939 ft | 336 kts | 223° |
| 2026-05-08 15:01 | 30.56520 | -14.68459 | 30946 ft | 336 kts | 223° |
| 2026-05-08 15:02 | 30.52674 | -14.71533 | 30946 ft | 336 kts | 223° |
| 2026-05-08 15:02 | 30.48830 | -14.74609 | 30946 ft | 336 kts | 223° |
| 2026-05-08 15:03 | 30.44984 | -14.77689 | 30954 ft | 336 kts | 223° |
| 2026-05-08 15:03 | 30.41140 | -14.80762 | 30951 ft | 336 kts | 223° |
| 2026-05-08 15:04 | 30.37283 | -14.83824 | 30932 ft | 339 kts | 223° |
| 2026-05-08 15:04 | 30.33383 | -14.86934 | 30939 ft | 341 kts | 223° |
| 2026-05-08 15:05 | 30.29473 | -14.90049 | 30949 ft | 341 kts | 223° |
| 2026-05-08 15:05 | 30.25572 | -14.93154 | 30952 ft | 340 kts | 223° |
| 2026-05-08 15:06 | 30.21667 | -14.96252 | 30959 ft | 340 kts | 223° |
| 2026-05-08 15:06 | 30.17763 | -14.99346 | 30966 ft | 340 kts | 223° |
| 2026-05-08 15:07 | 30.13864 | -15.02439 | 30962 ft | 340 kts | 223° |
| 2026-05-08 15:07 | 30.09963 | -15.05527 | 30961 ft | 340 kts | 223° |
| 2026-05-08 15:08 | 30.06717 | -15.08098 | 30930 ft | 342 kts | 223° |
| 2026-05-08 15:08 | 30.02084 | -15.11755 | 30961 ft | 346 kts | 223° |
| 2026-05-08 15:09 | 29.98108 | -15.14888 | 30967 ft | 346 kts | 223° |
| 2026-05-08 15:09 | 29.94138 | -15.18022 | 30969 ft | 346 kts | 223° |
| 2026-05-08 15:10 | 29.90170 | -15.21154 | 30972 ft | 345 kts | 223° |
| 2026-05-08 15:10 | 29.86206 | -15.24279 | 30968 ft | 345 kts | 223° |
| 2026-05-08 15:11 | 29.82240 | -15.27398 | 30973 ft | 345 kts | 223° |
| 2026-05-08 15:11 | 29.78279 | -15.30516 | 30973 ft | 345 kts | 223° |
| 2026-05-08 15:12 | 29.74310 | -15.33625 | 30974 ft | 345 kts | 223° |
| 2026-05-08 15:12 | 29.70370 | -15.36712 | 30982 ft | 345 kts | 223° |
| 2026-05-08 15:13 | 29.66408 | -15.39823 | 30975 ft | 345 kts | 223° |
| 2026-05-08 15:13 | 29.62437 | -15.42934 | 30976 ft | 345 kts | 223° |
| 2026-05-08 15:14 | 29.58459 | -15.46039 | 30979 ft | 346 kts | 223° |
| 2026-05-08 15:14 | 29.54481 | -15.49135 | 30980 ft | 346 kts | 223° |
| 2026-05-08 15:15 | 29.50504 | -15.52232 | 30983 ft | 345 kts | 223° |
| 2026-05-08 15:15 | 29.46531 | -15.55335 | 30947 ft | 346 kts | 223° |
| 2026-05-08 15:16 | 29.42531 | -15.58461 | 30965 ft | 349 kts | 223° |
| 2026-05-08 15:16 | 29.38518 | -15.61578 | 30968 ft | 349 kts | 223° |
| 2026-05-08 15:17 | 29.34446 | -15.64746 | 30300 ft | 361 kts | 223° |
| 2026-05-08 15:17 | 29.32371 | -15.66361 | 29665 ft | 359 kts | 223° |
| 2026-05-08 15:17 | 29.30312 | -15.67956 | 29103 ft | 355 kts | 223° |
| 2026-05-08 15:18 | 29.28275 | -15.69530 | 28565 ft | 351 kts | 222° |
| 2026-05-08 15:18 | 29.26261 | -15.71085 | 28032 ft | 347 kts | 222° |
| 2026-05-08 15:18 | 29.24271 | -15.72624 | 27519 ft | 343 kts | 222° |
| 2026-05-08 15:18 | 29.22302 | -15.74149 | 27020 ft | 340 kts | 222° |
| 2026-05-08 15:19 | 29.20356 | -15.75655 | 26542 ft | 336 kts | 222° |
| 2026-05-08 15:19 | 29.18424 | -15.77148 | 26055 ft | 333 kts | 222° |
| 2026-05-08 15:19 | 29.17157 | -15.78127 | 25752 ft | 331 kts | 222° |
| 2026-05-08 15:19 | 29.15259 | -15.79594 | 25282 ft | 328 kts | 221° |
| 2026-05-08 15:20 | 29.13379 | -15.81047 | 24856 ft | 324 kts | 221° |
| 2026-05-08 15:20 | 29.11519 | -15.82489 | 24400 ft | 322 kts | 221° |
| 2026-05-08 15:20 | 29.09673 | -15.83921 | 23958 ft | 319 kts | 221° |
| 2026-05-08 15:20 | 29.07837 | -15.85341 | 23494 ft | 318 kts | 221° |
| 2026-05-08 15:21 | 29.06016 | -15.86749 | 22989 ft | 315 kts | 221° |
| 2026-05-08 15:21 | 29.04207 | -15.88142 | 22533 ft | 311 kts | 221° |
| 2026-05-08 15:21 | 29.02418 | -15.89516 | 22085 ft | 308 kts | 221° |
| 2026-05-08 15:21 | 29.00647 | -15.90876 | 21633 ft | 306 kts | 221° |
| 2026-05-08 15:22 | 28.98887 | -15.92230 | 21183 ft | 303 kts | 221° |
| 2026-05-08 15:22 | 28.97144 | -15.93574 | 20734 ft | 302 kts | 221° |
| 2026-05-08 15:22 | 28.95408 | -15.94916 | 20282 ft | 301 kts | 220° |
| 2026-05-08 15:22 | 28.93680 | -15.96249 | 19829 ft | 300 kts | 220° |
| 2026-05-08 15:23 | 28.91952 | -15.97580 | 19394 ft | 299 kts | 220° |
| 2026-05-08 15:23 | 28.90230 | -15.98905 | 18931 ft | 298 kts | 220° |
| 2026-05-08 15:23 | 28.88508 | -16.00230 | 18508 ft | 298 kts | 221° |
| 2026-05-08 15:23 | 28.86788 | -16.01552 | 18043 ft | 298 kts | 220° |
| 2026-05-08 15:24 | 28.85069 | -16.02871 | 17569 ft | 297 kts | 220° |
| 2026-05-08 15:24 | 28.83363 | -16.04179 | 17156 ft | 295 kts | 220° |
| 2026-05-08 15:24 | 28.81662 | -16.05484 | 16741 ft | 293 kts | 220° |
| 2026-05-08 15:24 | 28.79974 | -16.06778 | 16342 ft | 292 kts | 220° |
| 2026-05-08 15:25 | 28.78285 | -16.08071 | 15924 ft | 292 kts | 220° |
| 2026-05-08 15:25 | 28.76604 | -16.09360 | 15511 ft | 291 kts | 220° |
| 2026-05-08 15:25 | 28.74927 | -16.10648 | 15106 ft | 291 kts | 220° |
| 2026-05-08 15:25 | 28.73251 | -16.11931 | 14700 ft | 290 kts | 220° |
| 2026-05-08 15:26 | 28.71572 | -16.13217 | 14289 ft | 291 kts | 220° |
| 2026-05-08 15:26 | 28.69894 | -16.14502 | 13877 ft | 291 kts | 220° |
| 2026-05-08 15:26 | 28.68213 | -16.15787 | 13425 ft | 291 kts | 220° |
| 2026-05-08 15:26 | 28.66533 | -16.17067 | 12997 ft | 290 kts | 220° |
| 2026-05-08 15:27 | 28.64863 | -16.18341 | 12588 ft | 288 kts | 220° |
| 2026-05-08 15:27 | 28.63202 | -16.19609 | 12175 ft | 287 kts | 220° |
| 2026-05-08 15:27 | 28.61546 | -16.20873 | 11753 ft | 286 kts | 219° |
| 2026-05-08 15:27 | 28.59918 | -16.22116 | 11335 ft | 285 kts | 219° |
| 2026-05-08 15:28 | 28.58249 | -16.23391 | 10915 ft | 284 kts | 219° |
| 2026-05-08 15:28 | 28.56589 | -16.24612 | 10494 ft | 287 kts | 213° |
| 2026-05-08 15:28 | 28.54640 | -16.25213 | 10187 ft | 296 kts | 188° |
| 2026-05-08 15:28 | 28.52607 | -16.24797 | 10062 ft | 303 kts | 162° |
| 2026-05-08 15:29 | 28.50866 | -16.23375 | 9945 ft | 318 kts | 137° |
| 2026-05-08 15:29 | 28.49366 | -16.21463 | 9267 ft | 327 kts | 136° |
| 2026-05-08 15:29 | 28.47893 | -16.19596 | 8984 ft | 319 kts | 136° |
| 2026-05-08 15:29 | 28.46354 | -16.17668 | 8093 ft | 331 kts | 135° |
| 2026-05-08 15:30 | 28.44774 | -16.15705 | 7219 ft | 342 kts | 135° |
| 2026-05-08 15:30 | 28.43189 | -16.13731 | 6715 ft | 339 kts | 134° |
| 2026-05-08 15:30 | 28.41640 | -16.11794 | 6546 ft | 324 kts | 134° |
| 2026-05-08 15:30 | 28.40112 | -16.09991 | 6349 ft | 309 kts | 143° |
| 2026-05-08 15:31 | 28.38233 | -16.09021 | 6081 ft | 292 kts | 175° |
| 2026-05-08 15:31 | 28.36325 | -16.09338 | 5963 ft | 269 kts | 210° |
| 2026-05-08 15:31 | 28.35064 | -16.10710 | 5977 ft | 243 kts | 246° |
| 2026-05-08 15:31 | 28.34855 | -16.12486 | 5982 ft | 221 kts | 285° |
| 2026-05-08 15:32 | 28.35699 | -16.13855 | 5987 ft | 217 kts | 327° |
| 2026-05-08 15:32 | 28.37118 | -16.14466 | 5995 ft | 221 kts | 341° |
| 2026-05-08 15:32 | 28.38497 | -16.15176 | 5996 ft | 217 kts | 318° |
| 2026-05-08 15:32 | 28.39636 | -16.16297 | 5990 ft | 217 kts | 318° |
| 2026-05-08 15:33 | 28.40809 | -16.17381 | 5996 ft | 217 kts | 319° |
| 2026-05-08 15:33 | 28.41995 | -16.18451 | 5999 ft | 218 kts | 319° |
| 2026-05-08 15:33 | 28.43161 | -16.19543 | 5996 ft | 217 kts | 311° |
| 2026-05-08 15:33 | 28.43896 | -16.21002 | 6006 ft | 214 kts | 289° |
| 2026-05-08 15:34 | 28.44415 | -16.22584 | 6012 ft | 213 kts | 289° |
| 2026-05-08 15:34 | 28.44931 | -16.24132 | 6007 ft | 203 kts | 290° |
| 2026-05-08 15:34 | 28.45420 | -16.25595 | 6006 ft | 194 kts | 290° |
| 2026-05-08 15:34 | 28.45907 | -16.27030 | 5603 ft | 199 kts | 291° |
| 2026-05-08 15:35 | 28.46460 | -16.28447 | 5339 ft | 191 kts | 295° |
| 2026-05-08 15:35 | 28.47059 | -16.29753 | 5147 ft | 182 kts | 298° |
| 2026-05-08 15:35 | 28.47877 | -16.30763 | 5026 ft | 171 kts | 330° |
| 2026-05-08 15:35 | 28.49054 | -16.31039 | 4615 ft | 181 kts | 357° |
| 2026-05-08 15:36 | 28.50361 | -16.30989 | 4165 ft | 189 kts | 2° |
| 2026-05-08 15:36 | 28.51610 | -16.30639 | 3986 ft | 184 kts | 26° |
| 2026-05-08 15:36 | 28.52579 | -16.29740 | 3901 ft | 170 kts | 51° |
| 2026-05-08 15:36 | 28.52968 | -16.28553 | 4029 ft | 162 kts | 90° |
| 2026-05-08 15:37 | 28.52633 | -16.27362 | 3934 ft | 161 kts | 123° |
| 2026-05-08 15:37 | 28.51874 | -16.26430 | 3714 ft | 157 kts | 149° |
| 2026-05-08 15:37 | 28.50961 | -16.25770 | 3651 ft | 155 kts | 148° |
| 2026-05-08 15:37 | 28.50077 | -16.25122 | 3603 ft | 150 kts | 148° |
| 2026-05-08 15:38 | 28.49207 | -16.24482 | 3570 ft | 149 kts | 147° |
| 2026-05-08 15:38 | 28.48343 | -16.23847 | 3555 ft | 147 kts | 148° |
| 2026-05-08 15:38 | 28.47486 | -16.23218 | 3502 ft | 147 kts | 148° |
| 2026-05-08 15:38 | 28.46625 | -16.22591 | 3470 ft | 147 kts | 148° |
| 2026-05-08 15:39 | 28.45766 | -16.21965 | 3438 ft | 147 kts | 148° |
| 2026-05-08 15:39 | 28.44902 | -16.21336 | 3412 ft | 147 kts | 149° |
| 2026-05-08 15:39 | 28.43940 | -16.21072 | 3348 ft | 143 kts | 193° |
| 2026-05-08 15:39 | 28.43271 | -16.21778 | 3295 ft | 136 kts | 262° |
| 2026-05-08 15:40 | 28.43599 | -16.22715 | 3272 ft | 135 kts | 326° |
| 2026-05-08 15:40 | 28.44422 | -16.23253 | 3316 ft | 139 kts | 318° |
| 2026-05-08 15:40 | 28.44799 | -16.24219 | 3285 ft | 137 kts | 282° |
| 2026-05-08 15:40 | 28.45178 | -16.25199 | 3223 ft | 136 kts | 299° |
| 2026-05-08 15:41 | 28.45570 | -16.26181 | 3104 ft | 136 kts | 293° |
| 2026-05-08 15:41 | 28.45925 | -16.27179 | 2930 ft | 136 kts | 291° |
| 2026-05-08 15:41 | 28.46270 | -16.28179 | 2776 ft | 136 kts | 291° |
| 2026-05-08 15:41 | 28.46606 | -16.29172 | 2613 ft | 134 kts | 291° |
| 2026-05-08 15:42 | 28.46934 | -16.30150 | 2443 ft | 131 kts | 290° |
| 2026-05-08 15:42 | 28.47256 | -16.31116 | 2299 ft | 130 kts | 290° |
| 2026-05-08 15:42 | 28.47574 | -16.32069 | 2131 ft | 127 kts | 291° |
| 2026-05-08 15:42 | 28.47883 | -16.32993 | 2034 ft | 118 kts | 291° |
| 2026-05-08 15:43 | 28.48112 | -16.33677 | 2054 ft | 68 kts | 291° |
| 2026-05-08 15:43 | 28.48246 | -16.34079 | 2061 ft | 41 kts | 294° |
| 2026-05-08 15:43 | 28.48355 | -16.34198 | 2061 ft | 6 kts | 322° |
| 2026-05-08 15:43 | 28.48395 | -16.34234 | 2061 ft | 8 kts | 322° |
| 2026-05-08 15:44 | 28.48426 | -16.34295 | 2061 ft | 10 kts | 291° |
| 2026-05-08 15:44 | 28.48453 | -16.34376 | 2061 ft | 12 kts | 291° |
| 2026-05-08 15:44 | 28.48485 | -16.34468 | 2061 ft | 13 kts | 291° |
| 2026-05-08 15:44 | 28.48519 | -16.34571 | 2061 ft | 14 kts | 290° |
| 2026-05-08 15:45 | 28.48556 | -16.34682 | 2061 ft | 16 kts | 291° |
| 2026-05-08 15:45 | 28.48604 | -16.34774 | 2061 ft | 12 kts | 337° |
| 2026-05-08 15:45 | 28.48668 | -16.34757 | 2061 ft | 7 kts | 37° |
| 2026-05-08 15:45 | 28.48699 | -16.34733 | 2061 ft | 0 kts | 37° |
| 2026-05-08 15:51 | 28.48699 | -16.34732 | 2061 ft | 0 kts | 37° |